Time;durP1;ratioP1;P1;durP2;ratioP2;P2;SDS_P1;SDS_P2;PMS_P1;PMS_P2;Temp;Humidity;BMP_temperature;BMP_pressure;BME280_temperature;BME280_humidity;BME280_pressure;Samples;Min_cycle;Max_cycle;Signal;HPM_P1;HPM_P2
2021/03/03 00:02:29;;;;;;;31.60;19.40;;;1.40;87.10;;;;;;5078108;28;20182;-86
2021/03/03 00:05:00;;;;;;;27.30;18.37;;;1.30;87.30;;;;;;5077424;28;20180;-86
2021/03/03 00:07:36;;;;;;;27.87;18.13;;;1.10;87.30;;;;;;5077269;28;20198;-86
2021/03/03 00:10:04;;;;;;;29.57;18.80;;;1.10;87.60;;;;;;5077403;28;20193;-86
2021/03/03 00:12:36;;;;;;;31.77;18.63;;;1.10;87.70;;;;;;5095392;28;20171;-86
2021/03/03 00:15:05;;;;;;;29.87;18.23;;;1.20;87.60;;;;;;5076868;28;20181;-87
2021/03/03 00:17:39;;;;;;;29.07;18.13;;;1.30;87.50;;;;;;5095095;28;20610;-87
2021/03/03 00:20:14;;;;;;;34.07;17.90;;;1.20;87.30;;;;;;5095478;28;20237;-86
2021/03/03 00:22:46;;;;;;;35.30;18.37;;;1.00;87.30;;;;;;5077499;28;20695;-86
2021/03/03 00:25:20;;;;;;;32.20;20.80;;;1.00;87.50;;;;;;5076972;28;20204;-87
2021/03/03 00:27:51;;;;;;;29.20;18.33;;;0.90;87.70;;;;;;5076756;28;20677;-86
2021/03/03 00:30:27;;;;;;;31.23;18.90;;;0.80;88.00;;;;;;5076848;28;20174;-86
2021/03/03 00:33:04;;;;;;;31.93;20.30;;;0.70;88.40;;;;;;5077738;28;20178;-86
2021/03/03 00:35:31;;;;;;;31.57;19.87;;;0.50;88.80;;;;;;5076885;28;20261;-86
2021/03/03 00:38:11;;;;;;;31.03;20.07;;;0.50;89.10;;;;;;5076489;28;20701;-86
2021/03/03 00:40:41;;;;;;;35.67;21.07;;;0.50;89.30;;;;;;5095101;28;20159;-86
2021/03/03 00:43:13;;;;;;;33.23;19.53;;;0.40;89.60;;;;;;5076541;28;20304;-86
2021/03/03 00:45:39;;;;;;;31.30;20.07;;;0.30;89.80;;;;;;5076865;28;20174;-86
2021/03/03 00:48:05;;;;;;;39.13;20.77;;;0.30;90.00;;;;;;5076478;28;20230;-87
2021/03/03 00:50:39;;;;;;;36.90;21.07;;;0.30;90.10;;;;;;5076568;28;20170;-86
2021/03/03 00:53:17;;;;;;;36.10;21.27;;;0.30;90.20;;;;;;5076484;28;20603;-87
2021/03/03 00:55:52;;;;;;;33.23;20.63;;;0.30;90.30;;;;;;5076427;28;20187;-87
2021/03/03 00:58:26;;;;;;;43.47;21.63;;;0.30;90.40;;;;;;5094642;28;20213;-88
2021/03/03 01:00:59;;;;;;;38.67;21.70;;;0.40;90.50;;;;;;5094392;28;20159;-88
2021/03/03 01:03:31;;;;;;;29.93;18.80;;;0.50;90.50;;;;;;5076245;28;20178;-89
2021/03/03 01:05:57;;;;;;;28.60;17.33;;;0.60;90.40;;;;;;5094318;28;20249;-89
2021/03/03 01:08:34;;;;;;;28.13;17.70;;;0.70;90.30;;;;;;5076075;28;20601;-89
2021/03/03 01:11:11;;;;;;;27.10;17.27;;;0.70;89.90;;;;;;5094224;28;20170;-87
2021/03/03 01:13:48;;;;;;;24.53;16.27;;;0.70;89.40;;;;;;5076114;28;20178;-87
2021/03/03 01:16:29;;;;;;;32.03;19.53;;;0.70;89.20;;;;;;5094427;28;20591;-87
2021/03/03 01:19:01;;;;;;;33.00;19.90;;;0.70;89.30;;;;;;5076514;28;20178;-87
2021/03/03 01:21:34;;;;;;;34.47;21.77;;;0.60;89.70;;;;;;5076059;28;20642;-87
2021/03/03 01:24:06;;;;;;;31.37;20.40;;;0.60;90.00;;;;;;5075871;28;20186;-87
2021/03/03 01:26:38;;;;;;;40.10;22.63;;;0.70;90.30;;;;;;5075845;28;20530;-87
2021/03/03 01:29:14;;;;;;;33.37;21.53;;;0.70;90.50;;;;;;5075633;28;20179;-87
2021/03/03 01:31:50;;;;;;;31.13;20.53;;;0.70;90.60;;;;;;5076548;28;20630;-86
2021/03/03 01:34:21;;;;;;;32.70;20.73;;;0.70;90.70;;;;;;5075657;28;20175;-86
2021/03/03 01:36:51;;;;;;;34.40;20.70;;;0.50;90.50;;;;;;5075477;28;20210;-85
2021/03/03 01:39:21;;;;;;;36.90;22.53;;;0.50;91.00;;;;;;5075768;28;20240;-85
2021/03/03 01:41:58;;;;;;;35.53;21.40;;;0.40;91.30;;;;;;5075598;28;20650;-86
2021/03/03 01:44:29;;;;;;;38.50;22.10;;;0.40;91.40;;;;;;5075940;28;20169;-87
2021/03/03 01:47:05;;;;;;;35.60;21.93;;;0.40;91.40;;;;;;5075848;28;20199;-87
2021/03/03 01:49:32;;;;;;;30.23;19.50;;;0.40;91.30;;;;;;5075579;28;20567;-87
2021/03/03 01:52:04;;;;;;;33.87;19.60;;;0.50;91.30;;;;;;5075979;28;20170;-87
2021/03/03 01:54:40;;;;;;;27.07;17.87;;;0.50;91.30;;;;;;5075518;28;20563;-87
2021/03/03 01:57:07;;;;;;;29.07;18.33;;;0.60;91.20;;;;;;5093709;28;20207;-87
2021/03/03 01:59:46;;;;;;;32.53;18.97;;;0.60;91.10;;;;;;5075419;28;20167;-87
2021/03/03 02:02:23;;;;;;;28.43;18.27;;;0.70;90.90;;;;;;5075525;28;20594;-87
2021/03/03 02:05:01;;;;;;;27.67;17.37;;;0.60;90.70;;;;;;5076652;28;20678;-87
2021/03/03 02:07:53;;;;;;;29.87;19.10;;;0.60;90.40;;;;;;5075517;28;20286;-87
2021/03/03 02:10:36;;;;;;;29.67;19.50;;;0.60;90.20;;;;;;5075632;28;20588;-89
2021/03/03 02:13:26;;;;;;;28.37;17.90;;;0.60;90.30;;;;;;5075357;28;20674;-89
2021/03/03 02:16:01;;;;;;;28.93;19.10;;;0.60;90.10;;;;;;5093757;28;20159;-89
2021/03/03 02:18:33;;;;;;;30.30;19.77;;;0.60;90.00;;;;;;5075220;28;20234;-89
2021/03/03 02:21:28;;;;;;;32.20;20.60;;;0.60;89.80;;;;;;5075183;28;20175;-89
2021/03/03 02:24:04;;;;;;;28.53;18.63;;;0.60;89.80;;;;;;5075201;28;20178;-87
2021/03/03 02:26:41;;;;;;;27.27;17.23;;;0.60;89.40;;;;;;5075055;28;20637;-87
2021/03/03 02:29:16;;;;;;;28.07;18.30;;;0.60;89.20;;;;;;5093179;28;20257;-87
2021/03/03 02:31:51;;;;;;;29.37;18.37;;;0.50;89.00;;;;;;5075127;28;20170;-87
2021/03/03 02:34:19;;;;;;;26.40;17.40;;;0.50;88.70;;;;;;5075562;28;20185;-87
2021/03/03 02:36:54;;;;;;;26.50;17.67;;;0.50;88.50;;;;;;5075037;28;20191;-87
2021/03/03 02:39:31;;;;;;;23.40;17.07;;;0.50;88.40;;;;;;5095937;28;20170;-87
2021/03/03 02:42:02;;;;;;;27.07;17.73;;;0.50;88.20;;;;;;5079490;28;20182;-87
2021/03/03 02:44:37;;;;;;;24.40;17.23;;;0.40;87.80;;;;;;5079168;28;20177;-87
2021/03/03 02:47:10;;;;;;;24.60;16.77;;;0.40;87.70;;;;;;5079356;28;20202;-87
2021/03/03 02:49:44;;;;;;;27.57;17.23;;;0.40;87.50;;;;;;5078808;28;20184;-88
2021/03/03 02:52:19;;;;;;;25.20;16.57;;;0.30;87.30;;;;;;5079140;28;20179;-89
2021/03/03 02:54:44;;;;;;;23.50;15.47;;;0.30;87.40;;;;;;5079637;28;20622;-89
2021/03/03 02:57:20;;;;;;;28.87;16.50;;;0.20;87.30;;;;;;5097040;28;20255;-89
2021/03/03 02:59:51;;;;;;;25.47;16.13;;;0.20;87.20;;;;;;5078973;28;20642;-89
2021/03/03 03:02:27;;;;;;;22.80;17.27;;;0.20;86.90;;;;;;5097116;28;20584;-89
2021/03/03 03:05:01;;;;;;;57.53;17.70;;;0.10;86.90;;;;;;5078567;28;20176;-87
2021/03/03 03:07:35;;;;;;;28.30;16.90;;;0.00;87.90;;;;;;5078576;28;20233;-87
2021/03/03 03:10:03;;;;;;;27.83;18.10;;;0.00;88.40;;;;;;5078537;28;20260;-87
2021/03/03 03:12:32;;;;;;;32.07;17.93;;;0.00;88.70;;;;;;5078413;28;20261;-89
2021/03/03 03:15:02;;;;;;;44.80;23.23;;;0.00;88.30;;;;;;5078418;28;20184;-89
2021/03/03 03:17:35;;;;;;;28.50;19.50;;;0.00;88.00;;;;;;5078218;28;20210;-89
2021/03/03 03:20:10;;;;;;;38.40;20.37;;;-0.10;88.20;;;;;;5078392;28;20177;-89
2021/03/03 03:22:38;;;;;;;39.07;23.70;;;-0.10;88.30;;;;;;5078358;28;20255;-87
2021/03/03 03:25:15;;;;;;;49.23;27.30;;;-0.20;88.50;;;;;;5078202;28;20177;-89
2021/03/03 03:27:51;;;;;;;37.13;22.37;;;-0.20;88.90;;;;;;5077956;28;20211;-89
2021/03/03 03:30:18;;;;;;;33.97;21.33;;;-0.20;88.90;;;;;;5078152;28;20221;-89
2021/03/03 03:32:46;;;;;;;39.67;23.00;;;-0.20;88.80;;;;;;5078169;28;20178;-89
2021/03/03 03:35:12;;;;;;;40.13;22.93;;;-0.20;88.50;;;;;;5078496;28;20183;-89
2021/03/03 03:37:47;;;;;;;39.27;22.30;;;-0.20;88.30;;;;;;5077944;28;20294;-89
2021/03/03 03:40:13;;;;;;;132.07;23.40;;;-0.20;88.40;;;;;;5078737;28;20533;-87
2021/03/03 03:42:45;;;;;;;38.60;21.80;;;-0.20;88.70;;;;;;5077897;28;20175;-87
2021/03/03 03:45:17;;;;;;;32.93;19.70;;;-0.20;88.80;;;;;;5095877;28;20167;-90
2021/03/03 03:47:43;;;;;;;66.43;20.87;;;-0.20;88.50;;;;;;5077809;28;20202;-87
2021/03/03 03:50:22;;;;;;;33.10;20.00;;;-0.20;88.40;;;;;;5077210;28;20182;-87
2021/03/03 03:52:57;;;;;;;34.53;19.23;;;-0.20;88.30;;;;;;5077590;28;20174;-87
2021/03/03 03:55:42;;;;;;;51.40;27.00;;;-0.30;88.10;;;;;;5077601;28;20174;-87
2021/03/03 03:58:15;;;;;;;135.80;27.07;;;-0.30;88.10;;;;;;5078152;28;20210;-87
2021/03/03 04:00:48;;;;;;;263.23;25.00;;;-0.30;88.60;;;;;;5077520;28;20181;-88
2021/03/03 04:03:21;;;;;;;56.53;29.67;;;-0.40;89.00;;;;;;5077500;28;20180;-87
2021/03/03 04:05:51;;;;;;;40.17;21.77;;;-0.60;89.30;;;;;;5095617;28;20614;-88
2021/03/03 04:08:21;;;;;;;49.67;21.43;;;-0.60;89.20;;;;;;5095382;28;20658;-89
2021/03/03 04:10:59;;;;;;;39.37;20.70;;;-0.50;89.50;;;;;;5077412;28;20262;-89
2021/03/03 04:13:34;;;;;;;36.80;22.23;;;-0.50;89.50;;;;;;5095403;28;20172;-89
2021/03/03 04:16:11;;;;;;;36.00;22.20;;;-0.40;89.50;;;;;;5095339;28;20703;-89
2021/03/03 04:18:41;;;;;;;30.97;19.77;;;-0.40;89.30;;;;;;5076957;28;20260;-89
2021/03/03 04:21:14;;;;;;;31.00;18.77;;;-0.50;89.20;;;;;;5077022;28;20182;-89
2021/03/03 04:23:51;;;;;;;33.27;19.27;;;-0.40;89.00;;;;;;5077264;28;20171;-89
2021/03/03 04:26:23;;;;;;;27.27;17.47;;;-0.50;88.70;;;;;;5077377;28;20252;-89
2021/03/03 04:28:58;;;;;;;30.93;16.97;;;-0.40;88.70;;;;;;5076946;28;20658;-89
2021/03/03 04:31:31;;;;;;;24.17;15.40;;;-0.50;88.50;;;;;;5095326;28;20167;-89
2021/03/03 04:34:00;;;;;;;26.37;16.87;;;-0.50;88.30;;;;;;5076766;28;20260;-89
2021/03/03 04:36:31;;;;;;;26.27;17.10;;;-0.60;88.20;;;;;;5076867;28;20187;-89
2021/03/03 04:38:59;;;;;;;28.97;17.63;;;-0.60;88.10;;;;;;5077870;28;20252;-89
2021/03/03 04:41:27;;;;;;;24.30;16.83;;;-0.60;88.20;;;;;;5076673;28;20180;-89
2021/03/03 04:44:04;;;;;;;25.07;15.87;;;-0.60;88.60;;;;;;5076820;28;20182;-89
2021/03/03 04:46:37;;;;;;;24.83;16.77;;;-0.70;88.60;;;;;;5076593;28;20584;-89
2021/03/03 04:49:02;;;;;;;26.30;16.73;;;-0.70;88.70;;;;;;5076475;28;20178;-89
2021/03/03 04:51:31;;;;;;;24.37;15.40;;;-0.70;88.50;;;;;;5076878;28;20173;-89
2021/03/03 04:54:04;;;;;;;27.43;16.50;;;-0.70;88.40;;;;;;5076867;28;20182;-89
2021/03/03 04:56:40;;;;;;;26.03;16.90;;;-0.70;88.30;;;;;;5076208;28;20211;-89
2021/03/03 04:59:16;;;;;;;31.03;19.53;;;-0.80;88.10;;;;;;5076376;28;20187;-89
2021/03/03 05:01:48;;;;;;;46.37;23.87;;;-0.80;88.20;;;;;;5094490;28;20225;-89
2021/03/03 05:04:19;;;;;;;116.43;25.00;;;-0.80;88.40;;;;;;5094587;28;20168;-89
2021/03/03 05:06:50;;;;;;;41.90;24.43;;;-0.90;88.70;;;;;;5076254;28;20672;-89
2021/03/03 05:09:21;;;;;;;33.23;20.40;;;-0.80;89.00;;;;;;5076152;28;20177;-89
2021/03/03 05:11:53;;;;;;;30.80;19.77;;;-0.90;88.90;;;;;;5076212;28;20180;-89
2021/03/03 05:14:28;;;;;;;34.03;21.07;;;-0.90;88.80;;;;;;5094155;28;20548;-89
2021/03/03 05:17:00;;;;;;;33.00;21.43;;;-0.80;88.60;;;;;;5076779;28;20205;-89
2021/03/03 05:19:37;;;;;;;44.53;26.77;;;-0.80;88.40;;;;;;5076035;28;20261;-89
2021/03/03 05:22:11;;;;;;;45.50;28.03;;;-0.90;88.50;;;;;;5094065;28;20167;-89
2021/03/03 05:24:41;;;;;;;37.63;24.43;;;-0.90;88.60;;;;;;5077005;28;20576;-89
2021/03/03 05:27:07;;;;;;;57.73;23.47;;;-0.90;88.70;;;;;;5169179;22;20211;-90
2021/03/03 05:29:38;;;;;;;38.17;22.63;;;-0.90;88.60;;;;;;5075469;28;20207;-90
2021/03/03 05:32:10;;;;;;;39.17;22.67;;;-0.90;88.40;;;;;;5076098;28;20168;-91
2021/03/03 05:34:41;;;;;;;35.37;22.37;;;-0.80;88.30;;;;;;5076646;28;20666;-91
2021/03/03 05:37:11;;;;;;;39.17;21.53;;;-0.90;88.20;;;;;;5075935;28;20343;-90
2021/03/03 05:39:41;;;;;;;34.13;21.33;;;-0.90;88.20;;;;;;5075741;28;20652;-90
2021/03/03 05:42:11;;;;;;;35.97;20.93;;;-0.90;88.20;;;;;;5076018;28;20258;-90
2021/03/03 05:44:45;;;;;;;34.90;20.80;;;-0.90;88.30;;;;;;5075834;28;20303;-90
2021/03/03 05:47:21;;;;;;;29.67;19.40;;;-0.80;88.60;;;;;;5076530;28;20238;-90
2021/03/03 05:49:57;;;;;;;36.80;20.80;;;-0.90;88.60;;;;;;5076299;28;20768;-91
2021/03/03 05:52:34;;;;;;;33.63;20.43;;;-0.90;88.50;;;;;;5076265;28;20172;-90
2021/03/03 05:55:11;;;;;;;28.60;17.90;;;-0.90;88.50;;;;;;5075625;28;20219;-90
2021/03/03 05:57:37;;;;;;;29.27;18.03;;;-0.90;88.50;;;;;;5075649;28;20203;-90
2021/03/03 06:00:11;;;;;;;27.80;18.37;;;-0.90;88.30;;;;;;5075703;28;20727;-91
2021/03/03 06:02:41;;;;;;;26.97;17.00;;;-1.00;88.20;;;;;;5093729;28;20209;-91
2021/03/03 06:05:14;;;;;;;30.07;17.80;;;-0.90;88.30;;;;;;5093832;28;20214;-91
2021/03/03 06:07:51;;;;;;;25.47;16.07;;;-0.90;88.10;;;;;;5076168;28;20255;-90
2021/03/03 06:10:21;;;;;;;28.93;17.70;;;-0.90;87.90;;;;;;5076107;28;20177;-90
2021/03/03 06:12:52;;;;;;;28.17;17.40;;;-0.90;87.90;;;;;;5093036;28;20228;-90
2021/03/03 06:15:26;;;;;;;23.13;16.13;;;-0.90;88.00;;;;;;5075414;28;20223;-90
2021/03/03 06:18:01;;;;;;;26.20;16.43;;;-0.90;87.80;;;;;;5075216;28;20266;-90
2021/03/03 06:20:37;;;;;;;23.80;15.23;;;-0.90;87.90;;;;;;5075609;28;20179;-90
2021/03/03 06:23:21;;;;;;;28.60;16.83;;;-0.90;87.90;;;;;;5075434;28;20197;-90
2021/03/03 06:26:11;;;;;;;35.43;17.03;;;-0.90;87.80;;;;;;5093321;28;20175;-90
2021/03/03 06:28:49;;;;;;;56.50;19.80;;;-0.80;87.70;;;;;;5075218;28;20216;-90
2021/03/03 06:31:37;;;;;;;88.57;20.10;;;-0.80;87.70;;;;;;5075532;28;20239;-90
2021/03/03 06:34:21;;;;;;;116.00;22.73;;;-0.80;87.90;;;;;;5075591;28;20179;-90
2021/03/03 06:36:59;;;;;;;41.47;22.67;;;-0.70;88.40;;;;;;5075126;28;20170;-90
2021/03/03 06:39:37;;;;;;;69.80;25.20;;;-0.70;88.40;;;;;;5093178;28;20175;-90
2021/03/03 06:42:08;;;;;;;198.40;28.27;;;-0.60;89.10;;;;;;5074962;28;20170;-90
2021/03/03 06:44:56;;;;;;;163.30;28.20;;;-0.60;89.90;;;;;;5075352;28;20174;-89
2021/03/03 06:47:31;;;;;;;309.03;33.17;;;-0.70;90.20;;;;;;5093599;28;20196;-89
2021/03/03 06:50:12;;;;;;;252.13;30.77;;;-0.70;90.70;;;;;;5075783;28;20172;-90
2021/03/03 06:52:43;;;;;;;230.27;30.83;;;-0.70;91.50;;;;;;5074858;28;20174;-90
2021/03/03 06:55:49;;;;;;;247.23;30.87;;;-0.80;92.20;;;;;;5093225;28;20183;-90
2021/03/03 06:58:46;;;;;;;340.10;34.20;;;-0.90;92.50;;;;;;5089924;28;20223;-90
2021/03/03 07:01:40;;;;;;;264.67;35.27;;;-0.90;92.80;;;;;;5082645;28;20264;-90
2021/03/03 07:04:19;;;;;;;309.83;34.50;;;-0.90;92.90;;;;;;5093372;28;20144;-90
2021/03/03 07:06:51;;;;;;;109.30;30.27;;;-0.80;93.00;;;;;;5075213;28;20263;-90
2021/03/03 07:09:23;;;;;;;163.57;30.07;;;-0.80;93.00;;;;;;5093123;28;20198;-90
2021/03/03 07:12:03;;;;;;;199.50;33.57;;;-0.70;93.00;;;;;;5093178;28;20173;-90
2021/03/03 07:14:32;;;;;;;91.63;27.93;;;-0.70;93.10;;;;;;5093206;28;20180;-90
2021/03/03 07:17:05;;;;;;;90.77;29.77;;;-0.60;93.20;;;;;;5074998;28;20201;-90
2021/03/03 07:19:40;;;;;;;69.07;26.40;;;-0.60;93.20;;;;;;5093097;28;20201;-90
2021/03/03 07:22:24;;;;;;;85.40;24.63;;;-0.50;93.30;;;;;;5074888;28;20177;-90
2021/03/03 07:25:03;;;;;;;53.87;24.77;;;-0.40;93.20;;;;;;5075115;28;20174;-90
2021/03/03 07:27:31;;;;;;;42.03;23.17;;;-0.30;93.20;;;;;;5078321;28;20335;-90
2021/03/03 07:30:11;;;;;;;54.90;24.30;;;-0.20;93.20;;;;;;5078431;28;20204;-90
2021/03/03 07:32:37;;;;;;;38.50;23.97;;;-0.10;93.10;;;;;;5096800;28;20177;-90
2021/03/03 07:35:08;;;;;;;59.07;24.13;;;-0.10;93.10;;;;;;5078436;28;20174;-90
2021/03/03 07:37:42;;;;;;;45.90;24.70;;;0.00;93.10;;;;;;5078120;28;20580;-90
2021/03/03 07:40:10;;;;;;;60.77;22.93;;;0.00;93.10;;;;;;5078098;28;20198;-90
2021/03/03 07:42:42;;;;;;;49.93;25.70;;;0.10;93.10;;;;;;5077957;28;20172;-89
2021/03/03 07:45:17;;;;;;;52.17;25.87;;;0.10;93.10;;;;;;5078116;28;20552;-90
2021/03/03 07:47:43;;;;;;;45.03;26.73;;;0.30;93.50;;;;;;5077957;28;20222;-89
2021/03/03 07:50:19;;;;;;;48.53;27.90;;;0.30;93.60;;;;;;5078310;28;20184;-90
2021/03/03 07:52:50;;;;;;;46.57;27.70;;;0.40;93.60;;;;;;5078235;28;20661;-90
2021/03/03 07:55:18;;;;;;;44.23;26.97;;;0.50;93.80;;;;;;5077998;28;20171;-90
2021/03/03 07:57:47;;;;;;;49.57;27.87;;;0.50;93.90;;;;;;5095884;28;20209;-90
2021/03/03 08:00:27;;;;;;;49.33;28.43;;;0.60;93.90;;;;;;5077905;28;20170;-89
2021/03/03 08:03:00;;;;;;;53.30;29.23;;;0.70;94.00;;;;;;5096113;28;20159;-89
2021/03/03 08:05:29;;;;;;;52.63;27.80;;;0.80;94.10;;;;;;5096241;28;20224;-90
2021/03/03 08:08:24;;;;;;;58.67;31.07;;;0.80;94.20;;;;;;5096337;28;20553;-90
2021/03/03 08:11:04;;;;;;;53.73;29.80;;;1.00;94.30;;;;;;5077957;28;20167;-89
2021/03/03 08:13:42;;;;;;;61.90;31.97;;;1.00;94.30;;;;;;5095697;28;20165;-89
2021/03/03 08:16:10;;;;;;;64.97;33.07;;;1.10;94.30;;;;;;5077396;28;20171;-89
2021/03/03 08:18:53;;;;;;;72.53;33.30;;;1.20;94.20;;;;;;5077084;28;20717;-89
2021/03/03 08:21:24;;;;;;;69.10;32.70;;;1.40;94.30;;;;;;5077150;28;20168;-88
2021/03/03 08:24:01;;;;;;;60.27;30.50;;;1.50;94.30;;;;;;5077365;28;20171;-89
2021/03/03 08:26:41;;;;;;;62.07;31.00;;;1.60;94.30;;;;;;5095027;28;20170;-89
2021/03/03 08:29:20;;;;;;;53.07;29.53;;;1.80;94.30;;;;;;5076705;28;20217;-89
2021/03/03 08:31:54;;;;;;;60.63;31.23;;;1.80;94.30;;;;;;5077271;28;20199;-89
2021/03/03 08:34:51;;;;;;;61.33;31.27;;;2.00;94.30;;;;;;5076765;28;20170;-89
2021/03/03 08:37:30;;;;;;;67.90;32.63;;;2.20;94.40;;;;;;5076424;28;20207;-89
2021/03/03 08:40:03;;;;;;;79.87;35.37;;;2.40;94.50;;;;;;5076699;28;20176;-89
2021/03/03 08:42:40;;;;;;;74.37;37.40;;;2.60;94.60;;;;;;5094693;28;20256;-88
2021/03/03 08:45:15;;;;;;;82.50;36.90;;;2.70;94.60;;;;;;5077279;28;20173;-89
2021/03/03 08:47:56;;;;;;;79.80;36.73;;;2.80;94.60;;;;;;5094487;28;20193;-89
2021/03/03 08:50:44;;;;;;;68.40;32.40;;;3.00;94.60;;;;;;5094535;28;20158;-88
2021/03/03 08:53:29;;;;;;;81.37;38.00;;;3.30;94.50;;;;;;5094509;28;20167;-88
2021/03/03 08:55:58;;;;;;;70.37;33.93;;;3.40;94.40;;;;;;5076230;28;20198;-88
2021/03/03 08:58:46;;;;;;;62.83;32.10;;;3.60;94.40;;;;;;5076427;28;20212;-88
2021/03/03 09:01:40;;;;;;;59.53;29.90;;;3.70;94.20;;;;;;5076158;28;20604;-89
2021/03/03 09:04:16;;;;;;;57.30;29.00;;;3.80;94.00;;;;;;5076007;28;20172;-88
2021/03/03 09:06:59;;;;;;;54.77;27.23;;;3.90;94.00;;;;;;5076300;28;20180;-88
2021/03/03 09:09:39;;;;;;;56.33;29.37;;;4.10;93.60;;;;;;5076277;28;20174;-89
2021/03/03 09:12:14;;;;;;;47.97;27.43;;;4.30;93.60;;;;;;5076453;28;20432;-88
2021/03/03 09:14:54;;;;;;;51.63;27.13;;;4.50;93.40;;;;;;5075838;28;20176;-89
2021/03/03 09:17:34;;;;;;;49.80;28.47;;;4.60;93.40;;;;;;5094004;28;20583;-89
2021/03/03 09:20:21;;;;;;;49.77;27.97;;;4.70;93.30;;;;;;5075872;28;20168;-89
2021/03/03 09:22:56;;;;;;;47.87;26.53;;;4.80;92.90;;;;;;5075675;28;20225;-89
2021/03/03 09:25:31;;;;;;;47.53;26.97;;;4.80;92.70;;;;;;5093941;28;20167;-89
2021/03/03 09:28:08;;;;;;;41.23;25.73;;;5.00;92.60;;;;;;5075605;28;20216;-89
2021/03/03 09:30:48;;;;;;;39.57;23.93;;;5.30;92.30;;;;;;5094472;28;20177;-89
2021/03/03 09:33:16;;;;;;;42.13;25.03;;;5.50;91.70;;;;;;5075641;28;20178;-89
2021/03/03 09:35:50;;;;;;;44.83;24.63;;;5.60;91.40;;;;;;5093710;28;20170;-89
2021/03/03 09:38:19;;;;;;;39.97;24.07;;;5.80;91.40;;;;;;5076075;28;20676;-88
2021/03/03 09:40:45;;;;;;;40.40;24.87;;;5.80;90.90;;;;;;5075704;28;20544;-89
2021/03/03 09:43:21;;;;;;;41.70;23.03;;;5.90;90.90;;;;;;5075694;28;20167;-88
2021/03/03 09:45:57;;;;;;;32.77;21.73;;;6.20;90.50;;;;;;5075389;28;20175;-89
2021/03/03 09:48:28;;;;;;;35.83;22.80;;;6.20;90.00;;;;;;5092850;28;20186;-89
2021/03/03 09:51:01;;;;;;;37.63;24.33;;;6.40;89.50;;;;;;5093586;28;20188;-89
2021/03/03 09:53:39;;;;;;;40.37;22.97;;;6.50;89.50;;;;;;5075414;28;20182;-89
2021/03/03 09:56:26;;;;;;;32.40;21.93;;;6.70;89.10;;;;;;5076451;28;20172;-89
2021/03/03 09:59:00;;;;;;;38.03;23.63;;;6.90;88.50;;;;;;5075236;28;20303;-89
2021/03/03 10:01:41;;;;;;;31.70;21.53;;;7.00;88.60;;;;;;5075294;28;20639;-89
2021/03/03 10:04:08;;;;;;;35.57;21.40;;;7.20;87.20;;;;;;5093485;28;20196;-89
2021/03/03 10:06:36;;;;;;;33.37;22.53;;;7.30;86.90;;;;;;5075341;28;20178;-89
2021/03/03 10:09:09;;;;;;;36.40;23.20;;;7.50;86.30;;;;;;5075149;28;20246;-89
2021/03/03 10:11:38;;;;;;;36.17;22.10;;;7.60;85.90;;;;;;5075362;28;20177;-89
2021/03/03 10:14:06;;;;;;;35.00;21.03;;;7.80;85.30;;;;;;5075542;28;20174;-89
2021/03/03 10:16:39;;;;;;;33.97;21.97;;;7.90;84.10;;;;;;5093239;28;20178;-88
2021/03/03 10:19:14;;;;;;;36.10;23.53;;;8.00;84.20;;;;;;5075046;28;20638;-89
2021/03/03 10:21:50;;;;;;;31.10;19.87;;;8.20;84.80;;;;;;5075065;28;20264;-89
2021/03/03 10:24:26;;;;;;;34.10;21.00;;;8.40;83.20;;;;;;5074898;28;20170;-89
2021/03/03 10:27:00;;;;;;;39.00;21.30;;;8.60;82.10;;;;;;5093530;28;20158;-89
2021/03/03 10:29:43;;;;;;;27.17;18.27;;;8.70;81.00;;;;;;5074778;28;20555;-89
2021/03/03 10:32:14;;;;;;;33.17;19.53;;;9.00;80.00;;;;;;5092922;28;20167;-87
2021/03/03 10:34:41;;;;;;;34.53;18.17;;;9.10;78.40;;;;;;5074942;28;20166;-89
2021/03/03 10:37:07;;;;;;;32.47;19.27;;;9.20;78.40;;;;;;5074664;28;20205;-88
2021/03/03 10:39:34;;;;;;;29.00;19.17;;;9.40;78.80;;;;;;5074904;28;20248;-89
2021/03/03 10:42:09;;;;;;;29.77;19.87;;;9.50;77.40;;;;;;5074829;28;20166;-89
2021/03/03 10:44:49;;;;;;;32.43;19.63;;;9.70;77.60;;;;;;5075176;28;20174;-89
2021/03/03 10:47:48;;;;;;;38.70;20.57;;;9.80;78.60;;;;;;5074722;28;20228;-89
2021/03/03 10:50:16;;;;;;;31.53;19.77;;;10.00;76.90;;;;;;5074799;28;20189;-89
2021/03/03 10:52:57;;;;;;;33.20;20.73;;;10.30;75.00;;;;;;5074770;28;20204;-89
2021/03/03 10:55:34;;;;;;;28.97;20.00;;;10.30;74.20;;;;;;5075223;28;20178;-89
2021/03/03 10:58:11;;;;;;;30.27;19.13;;;10.60;74.00;;;;;;5075175;28;20206;-88
2021/03/03 11:01:03;;;;;;;30.93;19.87;;;10.80;73.10;;;;;;5095538;28;20163;-88
2021/03/03 11:03:54;;;;;;;35.83;20.17;;;11.00;72.00;;;;;;5078377;28;20171;-88
2021/03/03 11:06:27;;;;;;;27.37;18.23;;;11.10;70.70;;;;;;5096767;28;20174;-88
2021/03/03 11:09:00;;;;;;;31.93;19.60;;;11.20;69.90;;;;;;5078322;28;20245;-88
2021/03/03 11:11:34;;;;;;;31.33;19.87;;;11.30;69.40;;;;;;5096347;28;20665;-88
2021/03/03 11:14:03;;;;;;;33.93;19.70;;;11.40;69.10;;;;;;5078302;28;20254;-88
2021/03/03 11:16:34;;;;;;;30.67;20.47;;;11.50;68.00;;;;;;5096252;28;20220;-88
2021/03/03 11:19:02;;;;;;;31.40;20.53;;;11.50;68.60;;;;;;5096183;28;20206;-88
2021/03/03 11:21:37;;;;;;;30.20;20.07;;;11.50;67.20;;;;;;5077990;28;20175;-87
2021/03/03 11:24:11;;;;;;;30.60;19.57;;;11.70;67.90;;;;;;5077917;28;20584;-87
2021/03/03 11:26:45;;;;;;;28.87;19.47;;;11.80;66.50;;;;;;5096044;28;20170;-87
2021/03/03 11:29:19;;;;;;;30.50;20.20;;;12.00;66.20;;;;;;5196296;22;20653;-89
2021/03/03 11:31:49;;;;;;;37.07;22.23;;;12.10;66.00;;;;;;5078509;28;20171;-90
2021/03/03 11:34:17;;;;;;;32.03;19.00;;;12.00;65.20;;;;;;5096344;28;20177;-89
2021/03/03 11:36:48;;;;;;;35.00;20.67;;;12.10;65.50;;;;;;5078414;28;20266;-90
2021/03/03 11:39:25;;;;;;;35.50;18.77;;;12.20;65.10;;;;;;5078220;28;20225;-87
2021/03/03 11:41:57;;;;;;;36.07;20.60;;;12.30;65.00;;;;;;5079054;28;20585;-92
2021/03/03 11:44:24;;;;;;;36.53;20.40;;;12.30;65.70;;;;;;5078739;28;20171;-92
2021/03/03 11:46:50;;;;;;;31.33;20.17;;;12.50;64.70;;;;;;5097129;28;20193;-91
2021/03/03 11:49:16;;;;;;;31.93;19.87;;;12.50;63.30;;;;;;5096064;28;20186;-91
2021/03/03 11:51:47;;;;;;;32.07;20.40;;;12.70;64.00;;;;;;5077822;28;20185;-91
2021/03/03 11:54:25;;;;;;;32.37;18.50;;;12.70;63.90;;;;;;5096019;28;20650;-91
2021/03/03 11:56:55;;;;;;;31.63;20.07;;;12.70;62.60;;;;;;5078008;28;20182;-91
2021/03/03 11:59:30;;;;;;;30.67;20.33;;;12.60;63.70;;;;;;5095885;28;20618;-91
2021/03/03 12:02:05;;;;;;;31.47;19.33;;;12.50;63.80;;;;;;5095738;28;20163;-89
2021/03/03 12:04:41;;;;;;;34.90;19.47;;;12.30;64.50;;;;;;5077707;28;20687;-89
2021/03/03 12:07:12;;;;;;;34.83;21.90;;;12.20;64.80;;;;;;5077556;28;20170;-90
2021/03/03 12:09:44;;;;;;;37.43;20.63;;;12.20;65.00;;;;;;5077829;28;20613;-89
2021/03/03 12:12:21;;;;;;;36.93;20.77;;;12.20;64.80;;;;;;5076674;28;20546;-89
2021/03/03 12:14:57;;;;;;;36.77;21.33;;;12.20;65.20;;;;;;5095712;28;20159;-89
2021/03/03 12:17:31;;;;;;;40.67;21.80;;;12.30;64.50;;;;;;5077331;28;20198;-89
2021/03/03 12:20:03;;;;;;;29.93;19.13;;;12.50;64.50;;;;;;5077323;28;20170;-89
2021/03/03 12:22:37;;;;;;;37.53;22.43;;;12.70;63.10;;;;;;5095315;28;20220;-89
2021/03/03 12:25:10;;;;;;;34.30;22.03;;;12.80;62.20;;;;;;5095461;28;20171;-89
2021/03/03 12:27:41;;;;;;;34.37;18.60;;;12.80;61.20;;;;;;5095053;28;20555;-90
2021/03/03 12:30:14;;;;;;;36.20;20.60;;;12.90;59.80;;;;;;5095312;28;20227;-89
2021/03/03 12:32:45;;;;;;;40.90;23.07;;;13.00;61.10;;;;;;5095587;28;20646;-88
2021/03/03 12:35:15;;;;;;;34.90;23.33;;;13.30;60.90;;;;;;5095270;28;20171;-87
2021/03/03 12:37:51;;;;;;;43.37;22.50;;;13.50;61.40;;;;;;5077139;28;20229;-88
2021/03/03 12:40:21;;;;;;;37.63;21.83;;;13.70;60.90;;;;;;5077373;28;20166;-88
2021/03/03 12:42:56;;;;;;;37.70;22.07;;;13.70;60.80;;;;;;5076770;28;20257;-88
2021/03/03 12:45:29;;;;;;;38.03;22.10;;;13.80;59.30;;;;;;5095301;28;20182;-87
2021/03/03 12:47:57;;;;;;;40.73;23.60;;;13.80;61.10;;;;;;5094907;28;20205;-86
2021/03/03 12:50:28;;;;;;;40.73;21.80;;;13.90;61.30;;;;;;5094774;28;20171;-87
2021/03/03 12:53:01;;;;;;;42.27;23.07;;;13.80;59.00;;;;;;5076558;28;20303;-87
2021/03/03 12:55:34;;;;;;;34.87;21.40;;;13.80;60.20;;;;;;5094773;28;20163;-87
2021/03/03 12:58:00;;;;;;;37.93;22.07;;;13.80;60.00;;;;;;5076279;28;20210;-86
2021/03/03 13:00:26;;;;;;;44.83;22.33;;;13.80;59.90;;;;;;5076312;28;20634;-86
2021/03/03 13:02:52;;;;;;;36.57;21.77;;;13.70;59.90;;;;;;5076389;28;20177;-86
2021/03/03 13:05:19;;;;;;;41.17;22.50;;;13.70;61.00;;;;;;5076268;28;20204;-86
2021/03/03 13:07:47;;;;;;;34.73;21.77;;;13.70;60.70;;;;;;5094316;28;20191;-86